createdAt,value
2022-08-23T00:02:23.267Z,1008.08
2022-08-23T00:08:35.967Z,1008.1
2022-08-23T00:14:58.977Z,1008.1
2022-08-23T00:21:18.975Z,1008.1
2022-08-23T00:27:41.969Z,1008.1
2022-08-23T00:34:01.971Z,1008.08
2022-08-23T00:40:24.995Z,1008.1
2022-08-23T00:46:44.981Z,1008.06
2022-08-23T00:53:07.976Z,1008.06
2022-08-23T00:59:27.975Z,1008.08
2022-08-23T01:05:50.967Z,1008.08
2022-08-23T01:12:10.978Z,1008.1
2022-08-23T01:18:33.977Z,1008.12
2022-08-23T01:25:06.659Z,1008.1
2022-08-23T01:31:16.993Z,1008.12
2022-08-23T01:37:36.979Z,1008.2
2022-08-23T01:43:59.983Z,1008.24
2022-08-23T01:50:19.968Z,1008.3
2022-08-23T01:56:43.021Z,1008.32
2022-08-23T02:03:02.974Z,1008.32
2022-08-23T02:09:25.969Z,1008.36
2022-08-23T02:15:46.011Z,1008.36
2022-08-23T02:22:08.975Z,1008.39
2022-08-23T02:28:28.996Z,1008.39
2022-08-23T02:42:12.078Z,1008.43
2022-08-23T02:48:35.029Z,1008.45
2022-08-23T02:54:56.986Z,1008.47
2022-08-23T03:01:18.024Z,1008.53
2022-08-23T03:07:38.027Z,1008.53
2022-08-23T03:14:01.025Z,1008.53
2022-08-23T03:20:21.031Z,1008.51
2022-08-23T03:26:44.033Z,1008.53
2022-08-23T03:33:03.994Z,1008.55
2022-08-23T03:39:27.004Z,1008.61
2022-08-23T03:45:46.965Z,1008.63
2022-08-23T04:09:53.146Z,1008.83
2022-08-23T04:16:09.974Z,1008.86
2022-08-23T04:22:32.985Z,1008.94
2022-08-23T04:28:52.990Z,1009.02
2022-08-23T04:35:15.979Z,1009.14
2022-08-23T04:41:35.980Z,1009.22
2022-08-23T04:47:59.125Z,1009.3
2022-08-23T04:54:18.993Z,1009.33
2022-08-23T05:00:42.023Z,1009.37
2022-08-23T05:07:01.971Z,1009.51
2022-08-23T05:13:25.011Z,1009.55
2022-08-23T05:19:47.052Z,1009.59
2022-08-23T05:26:07.994Z,1009.65
2022-08-23T05:32:31.588Z,1009.65
2022-08-23T05:38:50.979Z,1009.69
2022-08-23T05:45:10.994Z,1009.75
2022-08-23T05:51:33.974Z,1009.78
2022-08-23T05:57:53.982Z,1009.86
2022-08-23T06:04:16.975Z,1009.92
2022-08-23T06:10:40.454Z,1010
2022-08-23T06:16:59.968Z,1010.08
2022-08-23T06:23:19.974Z,1010.04
2022-08-23T06:29:43.017Z,1010.08
2022-08-23T06:36:02.981Z,1010.12
2022-08-23T06:42:41.244Z,1010.1
2022-08-23T06:48:45.985Z,1010.06
2022-08-23T06:55:13.195Z,1010.08
2022-08-23T07:01:45.002Z,1010.02
2022-08-23T07:07:51.981Z,1010.06
2022-08-23T07:14:11.989Z,1010.18
2022-08-23T07:20:34.986Z,1010.22
2022-08-23T07:26:54.982Z,1010.27
2022-08-23T07:33:18.004Z,1010.29
2022-08-23T07:39:37.997Z,1010.35
2022-08-23T07:46:01.002Z,1010.37
2022-08-23T07:52:20.997Z,1010.37
2022-08-23T07:58:44.008Z,1010.37
2022-08-23T08:05:03.975Z,1010.41
2022-08-23T08:11:29.658Z,1010.43
2022-08-23T08:17:46.984Z,1010.39
2022-08-23T08:24:09.976Z,1010.43
2022-08-23T08:30:29.985Z,1010.43
2022-08-23T08:36:52.995Z,1010.39
2022-08-23T08:43:12.977Z,1010.37
2022-08-23T08:49:35.983Z,1010.33
2022-08-23T08:55:55.974Z,1010.35
2022-08-23T09:02:22.110Z,1010.37
2022-08-23T09:08:38.978Z,1010.33
2022-08-23T09:15:01.978Z,1010.33
2022-08-23T09:21:21.996Z,1010.35
2022-08-23T09:27:45.651Z,1010.31
2022-08-23T09:34:04.987Z,1010.35
2022-08-23T09:40:27.979Z,1010.31
2022-08-23T10:03:34.985Z,1010.14
2022-08-23T10:09:54.978Z,1010.1
2022-08-23T10:16:18.020Z,1010.06
2022-08-23T10:22:37.975Z,1010
2022-08-23T10:29:01.045Z,1009.98
2022-08-23T10:35:20.979Z,1009.98
2022-08-23T10:41:43.986Z,1009.98
2022-08-23T10:48:03.982Z,1009.94
2022-08-23T10:54:26.973Z,1009.88
2022-08-23T11:00:46.984Z,1009.82
2022-08-23T11:07:09.975Z,1009.77
2022-08-23T11:13:29.975Z,1009.71
2022-08-23T11:19:52.987Z,1009.71
2022-08-23T11:26:12.976Z,1009.71
2022-08-23T11:32:35.981Z,1009.67
2022-08-23T11:38:55.997Z,1009.65
2022-08-23T11:45:18.974Z,1009.57
2022-08-23T11:51:38.986Z,1009.51
2022-08-23T11:58:02.243Z,1009.41
2022-08-23T12:04:21.985Z,1009.31
2022-08-23T12:10:44.974Z,1009.28
2022-08-23T12:17:05.256Z,1009.22
2022-08-23T12:23:27.982Z,1009.18
2022-08-23T12:29:47.975Z,1009.14
2022-08-23T12:36:12.322Z,1009.08
2022-08-23T12:42:30.979Z,1009.04
2022-08-23T12:48:53.971Z,1009.06
2022-08-23T12:55:13.990Z,1009.02
2022-08-23T13:01:36.999Z,1009
2022-08-23T13:07:56.987Z,1008.98
2022-08-23T13:14:19.987Z,1008.98
2022-08-23T13:20:39.979Z,1008.96
2022-08-23T13:27:02.989Z,1008.92
2022-08-23T13:33:22.987Z,1008.92
2022-08-23T13:39:46.013Z,1008.86
2022-08-23T13:46:06.005Z,1008.84
2022-08-23T13:58:48.989Z,1008.81
2022-08-23T14:05:11.998Z,1008.75
2022-08-23T14:11:31.976Z,1008.75
2022-08-23T14:17:54.986Z,1008.69
2022-08-23T14:24:14.975Z,1008.69
2022-08-23T14:30:38.042Z,1008.69
2022-08-23T14:43:20.987Z,1008.67
2022-08-23T14:49:40.987Z,1008.65
2022-08-23T14:56:20.156Z,1008.63
2022-08-23T15:02:23.992Z,1008.59
2022-08-23T15:08:46.995Z,1008.61
2022-08-23T15:15:06.984Z,1008.63
2022-08-23T15:21:29.993Z,1008.65
2022-08-23T15:27:49.981Z,1008.65
2022-08-23T15:34:12.993Z,1008.61
2022-08-23T15:40:33.046Z,1008.61
2022-08-23T15:46:55.983Z,1008.59
2022-08-23T16:09:04.961Z,1008.55
2022-08-23T16:15:27.983Z,1008.53
2022-08-23T16:21:47.984Z,1008.53
2022-08-23T16:28:10.978Z,1008.51
2022-08-23T16:34:30.993Z,1008.49
2022-08-23T16:40:53.992Z,1008.51
2022-08-23T16:47:13.981Z,1008.53
2022-08-23T16:53:36.991Z,1008.59
2022-08-23T16:59:56.983Z,1008.63
2022-08-23T17:06:19.994Z,1008.63
2022-08-23T17:12:39.983Z,1008.67
2022-08-23T17:19:02.973Z,1008.67
2022-08-23T17:25:22.991Z,1008.71
2022-08-23T17:31:46.018Z,1008.73
2022-08-23T17:38:05.991Z,1008.79
2022-08-23T17:44:28.997Z,1008.84
2022-08-23T17:50:48.990Z,1008.9
2022-08-23T17:57:11.998Z,1009
2022-08-23T18:03:31.982Z,1009.06
2022-08-23T18:09:54.978Z,1009.16
2022-08-23T18:16:15.044Z,1009.26
2022-08-23T18:22:37.985Z,1009.31
2022-08-23T18:28:57.980Z,1009.35
2022-08-23T18:35:20.982Z,1009.49
2022-08-23T18:41:40.973Z,1009.57
2022-08-23T18:48:03.997Z,1009.67
2022-08-23T18:54:23.979Z,1009.73
2022-08-23T19:00:47.050Z,1009.8
2022-08-23T19:07:06.971Z,1009.88
2022-08-23T19:13:29.970Z,1009.92
2022-08-23T19:19:49.977Z,1010
2022-08-23T19:26:12.973Z,1010.08
2022-08-23T19:32:32.988Z,1010.16
2022-08-23T19:38:55.978Z,1010.2
2022-08-23T19:45:15.977Z,1010.27
2022-08-23T19:51:38.985Z,1010.29
2022-08-23T19:57:58.969Z,1010.37
2022-08-23T20:04:21.976Z,1010.41
2022-08-23T20:10:41.976Z,1010.49
2022-08-23T20:17:04.982Z,1010.55
2022-08-23T20:23:24.975Z,1010.67
2022-08-23T20:29:47.995Z,1010.71
2022-08-23T20:36:07.965Z,1010.77
2022-08-23T20:42:30.973Z,1010.77
2022-08-23T20:48:50.964Z,1010.75
2022-08-23T20:55:13.987Z,1010.79
2022-08-23T21:01:33.996Z,1010.81
2022-08-23T21:07:56.970Z,1010.83
2022-08-23T21:14:17.206Z,1010.87
2022-08-23T21:20:39.972Z,1010.93
2022-08-23T21:26:59.985Z,1010.93
2022-08-23T21:33:22.966Z,1010.93
2022-08-23T21:39:42.978Z,1010.99
2022-08-23T21:46:06.091Z,1010.97
2022-08-23T22:20:01.980Z,1011.05
2022-08-23T22:26:21.966Z,1011.05
2022-08-23T22:32:44.983Z,1011.09
2022-08-23T22:39:04.974Z,1011.12
2022-08-23T22:45:27.966Z,1011.16
2022-08-23T22:51:49.074Z,1011.16
2022-08-23T22:58:10.965Z,1011.18
2022-08-23T23:04:31.021Z,1011.2
2022-08-23T23:10:53.974Z,1011.26
2022-08-23T23:17:13.976Z,1011.28
2022-08-23T23:23:36.982Z,1011.24
2022-08-23T23:29:56.973Z,1011.24
2022-08-23T23:36:19.990Z,1011.26
2022-08-23T23:42:39.960Z,1011.28
2022-08-23T23:49:03.000Z,1011.3
2022-08-23T23:55:22.971Z,1011.3
